createdAt,value
2019-03-18T00:01:28.204Z,6.61
2019-03-18T00:04:15.837Z,6.50
2019-03-18T00:07:03.567Z,6.41
2019-03-18T00:09:51.091Z,6.85
2019-03-18T00:12:38.515Z,6.80
2019-03-18T00:15:26.145Z,6.45
2019-03-18T00:18:13.058Z,6.74
2019-03-18T00:21:00.684Z,6.84
2019-03-18T00:23:48.415Z,6.84
2019-03-18T00:26:35.760Z,6.54
2019-03-18T00:29:23.162Z,6.32
2019-03-18T00:32:10.894Z,6.06
2019-03-18T00:34:58.319Z,6.22
2019-03-18T00:37:45.853Z,5.88
2019-03-18T00:40:33.373Z,6.08
2019-03-18T00:43:21.107Z,6.36
2019-03-18T00:46:08.734Z,6.47
2019-03-18T00:48:56.058Z,6.34
2019-03-18T00:51:43.590Z,6.24
2019-03-18T00:54:31.416Z,6.11
2019-03-18T00:57:19.454Z,5.85
2019-03-18T01:00:09.743Z,6.12
2019-03-18T01:02:57.271Z,6.57
2019-03-18T01:05:44.699Z,6.45
2019-03-18T01:08:31.913Z,6.14
2019-03-18T01:11:19.342Z,5.95
2019-03-18T01:14:06.769Z,6.08
2019-03-18T01:16:53.958Z,6.03
2019-03-18T01:19:41.719Z,6.09
2019-03-18T01:22:29.242Z,6.08
2019-03-18T01:25:16.869Z,6.11
2019-03-18T01:28:04.403Z,5.98
2019-03-18T01:30:51.780Z,6.10
2019-03-18T01:33:39.446Z,5.80
2019-03-18T01:36:27.076Z,5.89
2019-03-18T01:39:15.015Z,5.87
2019-03-18T01:42:02.538Z,5.77
2019-03-18T01:44:50.375Z,5.94
2019-03-18T01:47:37.798Z,6.21
2019-03-18T01:50:25.732Z,6.38
2019-03-18T01:53:13.771Z,6.25
2019-03-18T01:56:01.193Z,6.19
2019-03-18T01:58:48.925Z,6.21
2019-03-18T02:01:36.454Z,6.33
2019-03-18T02:04:23.877Z,6.15
2019-03-18T02:07:10.993Z,6.30
2019-03-18T02:09:58.828Z,6.06
2019-03-18T02:12:46.046Z,6.09
2019-03-18T02:15:33.778Z,5.61
2019-03-18T02:18:20.999Z,5.58
2019-03-18T02:21:08.832Z,5.76
2019-03-18T02:23:56.566Z,6.05
2019-03-18T02:26:44.807Z,5.91
2019-03-18T02:29:32.538Z,5.86
2019-03-18T02:32:20.269Z,5.67
2019-03-18T02:35:08.208Z,6.07
2019-03-18T02:37:55.425Z,6.13
2019-03-18T02:40:43.361Z,6.23
2019-03-18T02:43:30.889Z,6.01
2019-03-18T02:46:18.518Z,5.80
2019-03-18T02:49:06.263Z,5.55
2019-03-18T02:51:54.287Z,5.93
2019-03-18T02:54:41.922Z,6.04
2019-03-18T02:57:29.749Z,5.92
2019-03-18T03:00:17.298Z,5.78
2019-03-18T03:03:05.413Z,5.82
2019-03-18T03:05:53.050Z,5.76
2019-03-18T03:08:40.573Z,6.02
2019-03-18T03:11:28.000Z,6.13
2019-03-18T03:14:15.421Z,6.44
2019-03-18T03:17:02.906Z,6.42
2019-03-18T03:19:50.575Z,6.36
2019-03-18T03:22:38.702Z,6.18
2019-03-18T03:25:25.949Z,6.27
2019-03-18T03:28:13.359Z,6.22
2019-03-18T03:31:01.025Z,5.75
2019-03-18T03:33:48.593Z,6.00
2019-03-18T03:36:35.741Z,6.30
2019-03-18T03:39:22.951Z,6.33
2019-03-18T03:42:10.579Z,6.49
2019-03-18T03:44:58.006Z,6.39
2019-03-18T03:47:45.765Z,6.31
2019-03-18T03:50:33.673Z,6.19
2019-03-18T03:53:21.404Z,6.23
2019-03-18T03:56:09.341Z,6.14
2019-03-18T03:58:57.143Z,6.33
2019-03-18T04:01:44.600Z,6.39
2019-03-18T04:04:32.675Z,6.35
2019-03-18T04:07:20.067Z,6.54
2019-03-18T04:10:10.155Z,6.58
2019-03-18T04:12:57.574Z,6.49
2019-03-18T04:15:45.102Z,6.68
2019-03-18T04:18:32.421Z,6.79
2019-03-18T04:21:19.744Z,6.49
2019-03-18T04:24:07.175Z,6.27
2019-03-18T04:26:54.897Z,6.03
2019-03-18T04:29:42.216Z,5.53
2019-03-18T04:32:29.881Z,5.49
2019-03-18T04:35:17.493Z,5.65
2019-03-18T04:38:04.696Z,5.63
2019-03-18T04:40:52.120Z,5.53
2019-03-18T04:43:40.671Z,5.68
2019-03-18T04:46:27.992Z,5.81
2019-03-18T04:49:15.420Z,5.52
2019-03-18T04:52:02.843Z,5.53
2019-03-18T04:54:50.058Z,5.83
2019-03-18T04:57:37.481Z,5.60
2019-03-18T05:00:24.804Z,5.62
2019-03-18T05:03:12.007Z,5.31
2019-03-18T05:05:59.241Z,5.41
2019-03-18T05:08:46.972Z,5.52
2019-03-18T05:11:34.397Z,5.56
2019-03-18T05:14:21.924Z,5.85
2019-03-18T05:17:09.368Z,5.55
2019-03-18T05:19:56.569Z,5.52
2019-03-18T05:22:44.197Z,5.50
2019-03-18T05:25:32.134Z,5.29
2019-03-18T05:28:19.660Z,5.53
2019-03-18T05:31:07.082Z,5.76
2019-03-18T05:33:54.405Z,5.71
2019-03-18T05:36:42.341Z,5.37
2019-03-18T05:39:29.563Z,5.22
2019-03-18T05:42:17.087Z,5.13
2019-03-18T05:45:05.744Z,5.37
2019-03-18T05:47:53.369Z,5.37
2019-03-18T05:50:40.796Z,5.56
2019-03-18T05:53:28.323Z,5.11
2019-03-18T05:56:16.562Z,4.87
2019-03-18T05:59:03.886Z,5.26
2019-03-18T06:01:51.626Z,5.61
2019-03-18T06:04:39.140Z,5.51
2019-03-18T06:07:26.974Z,5.43
2019-03-18T06:10:14.605Z,5.72
2019-03-18T06:13:02.030Z,5.63
2019-03-18T06:15:49.658Z,5.88
2019-03-18T06:18:37.180Z,5.84
2019-03-18T06:21:25.664Z,5.74
2019-03-18T06:24:13.071Z,5.62
2019-03-18T06:27:01.098Z,5.95
2019-03-18T06:29:48.581Z,6.24
2019-03-18T06:32:36.067Z,6.12
2019-03-18T06:35:23.775Z,5.93
2019-03-18T06:38:11.817Z,6.10
2019-03-18T06:40:59.342Z,6.02
2019-03-18T06:43:46.766Z,6.24
2019-03-18T06:46:34.085Z,6.53
2019-03-18T06:49:21.512Z,6.41
2019-03-18T06:52:09.035Z,6.68
2019-03-18T06:54:56.562Z,6.83
2019-03-18T06:57:44.016Z,6.64
2019-03-18T07:00:31.412Z,5.24
2019-03-18T07:03:18.937Z,6.39
2019-03-18T07:06:06.569Z,6.38
2019-03-18T07:08:57.173Z,6.67
2019-03-18T07:11:45.684Z,6.81
2019-03-18T07:14:34.572Z,6.62
2019-03-18T07:17:26.344Z,6.81
2019-03-18T07:20:14.761Z,6.93
2019-03-18T07:23:02.169Z,7.03
2019-03-18T07:25:50.405Z,7.14
2019-03-18T07:28:37.739Z,7.28
2019-03-18T07:31:25.366Z,7.56
2019-03-18T07:34:13.096Z,7.50
2019-03-18T07:37:01.523Z,7.41
2019-03-18T07:39:49.070Z,7.38
2019-03-18T07:42:36.807Z,7.42
2019-03-18T07:45:24.429Z,7.32
2019-03-18T07:48:12.636Z,7.27
2019-03-18T07:51:00.203Z,7.31
2019-03-18T07:53:48.238Z,7.72
2019-03-18T07:56:35.666Z,7.37
2019-03-18T07:59:23.204Z,7.11
2019-03-18T08:02:10.615Z,7.50
2019-03-18T08:04:58.036Z,7.61
2019-03-18T08:07:45.255Z,7.98
2019-03-18T08:10:32.590Z,7.95
2019-03-18T08:13:19.901Z,7.72
2019-03-18T08:16:07.326Z,7.84
2019-03-18T08:18:54.850Z,7.68
2019-03-18T08:21:43.416Z,7.90
2019-03-18T08:24:31.139Z,7.75
2019-03-18T08:27:18.969Z,7.79
2019-03-18T08:30:14.808Z,7.64
2019-03-18T08:33:02.014Z,7.72
2019-03-18T08:35:49.429Z,7.49
2019-03-18T08:38:36.956Z,7.65
2019-03-18T08:41:24.484Z,7.88
2019-03-18T08:44:12.016Z,7.65
2019-03-18T08:46:59.232Z,8.01
2019-03-18T08:49:46.757Z,7.41
2019-03-18T08:52:33.876Z,6.97
2019-03-18T08:55:21.808Z,7.70
2019-03-18T08:58:09.550Z,7.50
2019-03-18T09:00:56.965Z,7.65
2019-03-18T09:03:44.798Z,7.85
2019-03-18T09:06:32.655Z,8.00
2019-03-18T09:09:20.162Z,8.44
2019-03-18T09:12:07.684Z,8.42
2019-03-18T09:14:55.334Z,8.53
2019-03-18T09:17:42.940Z,8.46
2019-03-18T09:20:30.202Z,8.63
2019-03-18T09:23:17.687Z,8.88
2019-03-18T09:26:05.218Z,8.98
2019-03-18T09:28:53.048Z,9.21
2019-03-18T09:31:40.172Z,9.16
2019-03-18T09:34:27.704Z,9.15
2019-03-18T09:37:15.476Z,9.50
2019-03-18T09:40:02.932Z,9.17
2019-03-18T09:42:49.789Z,9.28
2019-03-18T09:45:36.911Z,9.62
2019-03-18T09:48:23.994Z,10.01
2019-03-18T09:51:11.315Z,10.15
2019-03-18T09:53:58.840Z,9.96
2019-03-18T09:56:46.470Z,10.06
2019-03-18T09:59:34.097Z,9.96
2019-03-18T10:02:21.725Z,9.59
2019-03-18T10:05:09.254Z,9.48
2019-03-18T10:07:56.271Z,8.96
2019-03-18T10:10:44.001Z,8.98
2019-03-18T10:13:31.525Z,8.72
2019-03-18T10:16:18.643Z,8.62
2019-03-18T10:19:06.069Z,8.35
2019-03-18T10:21:54.209Z,8.63
2019-03-18T10:24:41.532Z,9.23
2019-03-18T10:27:29.056Z,9.20
2019-03-18T10:30:16.890Z,9.04
2019-03-18T10:33:05.035Z,8.51
2019-03-18T10:35:54.210Z,8.39
2019-03-18T10:38:41.835Z,8.61
2019-03-18T10:41:29.453Z,8.86
2019-03-18T10:44:16.884Z,8.84
2019-03-18T10:47:04.607Z,9.26
2019-03-18T10:49:52.339Z,9.74
2019-03-18T10:52:39.886Z,10.02
2019-03-18T10:55:28.128Z,10.49
2019-03-18T10:58:17.948Z,10.98
2019-03-18T11:01:04.803Z,11.44
2019-03-18T11:03:52.127Z,11.55
2019-03-18T11:06:40.167Z,11.65
2019-03-18T11:09:27.601Z,11.51
2019-03-18T11:12:15.317Z,11.45
2019-03-18T11:15:02.846Z,11.50
2019-03-18T11:17:55.490Z,11.39
2019-03-18T11:20:43.023Z,11.62
2019-03-18T11:23:30.645Z,11.71
2019-03-18T11:26:18.276Z,12.15
2019-03-18T11:29:06.518Z,12.06
2019-03-18T11:31:54.615Z,12.08
2019-03-18T11:34:42.186Z,11.97
2019-03-18T11:37:29.507Z,12.34
2019-03-18T11:40:19.166Z,11.98
2019-03-18T11:43:07.025Z,12.17
2019-03-18T11:45:54.762Z,11.77
2019-03-18T11:48:42.484Z,12.24
2019-03-18T11:51:29.906Z,12.36
2019-03-18T11:54:17.908Z,12.53
2019-03-18T11:57:06.290Z,12.81
2019-03-18T11:59:54.127Z,13.05
2019-03-18T12:02:41.752Z,13.41
2019-03-18T12:05:29.957Z,13.30
2019-03-18T12:08:17.011Z,13.39
2019-03-18T12:11:04.433Z,12.94
2019-03-18T12:13:52.164Z,13.21
2019-03-18T12:16:39.693Z,13.41
2019-03-18T12:19:27.321Z,13.55
2019-03-18T12:22:14.846Z,13.49
2019-03-18T12:25:02.580Z,13.05
2019-03-18T12:27:50.420Z,13.16
2019-03-18T12:30:38.271Z,13.05
2019-03-18T12:33:25.669Z,13.27
2019-03-18T12:36:13.096Z,13.51
2019-03-18T12:39:00.517Z,13.55
2019-03-18T12:41:48.151Z,13.64
2019-03-18T12:44:35.573Z,13.82
2019-03-18T12:47:23.096Z,13.68
2019-03-18T12:50:13.701Z,13.50
2019-03-18T12:53:01.224Z,13.37
2019-03-18T12:55:48.547Z,13.07
2019-03-18T12:58:36.685Z,12.87
2019-03-18T13:01:24.011Z,12.52
2019-03-18T13:04:11.432Z,12.38
2019-03-18T13:06:59.470Z,12.71
2019-03-18T13:09:47.101Z,12.69
2019-03-18T13:12:34.327Z,12.89
2019-03-18T13:15:22.153Z,12.83
2019-03-18T13:18:09.575Z,12.61
2019-03-18T13:21:07.397Z,12.56
2019-03-18T13:23:46.881Z,12.47
2019-03-18T13:26:34.415Z,12.51
2019-03-18T13:29:22.040Z,12.49
2019-03-18T13:32:09.466Z,12.50
2019-03-18T13:34:56.892Z,12.44
2019-03-18T13:37:44.209Z,12.19
2019-03-18T13:40:31.631Z,12.30
2019-03-18T13:43:19.268Z,12.47
2019-03-18T13:46:06.788Z,12.46
2019-03-18T13:48:54.521Z,12.06
2019-03-18T13:51:42.354Z,11.84
2019-03-18T13:54:32.252Z,12.09
2019-03-18T13:57:18.840Z,12.36
2019-03-18T14:00:13.125Z,12.40
2019-03-18T14:03:00.753Z,12.64
2019-03-18T14:05:48.485Z,12.06
2019-03-18T14:08:36.116Z,12.13
2019-03-18T14:11:23.639Z,12.27
2019-03-18T14:14:11.065Z,12.59
2019-03-18T14:16:58.427Z,12.96
2019-03-18T14:19:46.219Z,13.20
2019-03-18T14:22:33.643Z,12.90
2019-03-18T14:25:21.273Z,12.91
2019-03-18T14:28:08.699Z,12.69
2019-03-18T14:30:56.223Z,12.78
2019-03-18T14:33:43.956Z,12.85
2019-03-18T14:36:31.481Z,12.53
2019-03-18T14:39:18.915Z,12.55
2019-03-18T14:42:06.844Z,12.04
2019-03-18T14:44:54.573Z,11.45
2019-03-18T14:47:41.742Z,11.48
2019-03-18T14:50:29.221Z,11.58
2019-03-18T14:53:17.093Z,11.57
2019-03-18T14:56:05.236Z,11.59
2019-03-18T14:58:52.783Z,11.59
2019-03-18T15:01:40.348Z,11.50
2019-03-18T15:04:27.776Z,11.76
2019-03-18T15:07:15.716Z,11.94
2019-03-18T15:10:06.706Z,11.80
2019-03-18T15:12:53.652Z,11.92
2019-03-18T15:15:41.059Z,12.03
2019-03-18T15:18:28.993Z,12.00
2019-03-18T15:21:16.518Z,12.09
2019-03-18T15:24:16.173Z,12.24
2019-03-18T15:26:53.208Z,12.35
2019-03-18T15:29:41.962Z,12.32
2019-03-18T15:32:29.492Z,12.20
2019-03-18T15:35:17.956Z,12.01
2019-03-18T15:38:05.770Z,12.00
2019-03-18T15:40:52.888Z,12.16
2019-03-18T15:43:40.516Z,12.25
2019-03-18T15:46:27.745Z,12.34
2019-03-18T15:49:15.369Z,12.25
2019-03-18T15:52:11.116Z,12.31
2019-03-18T15:54:54.116Z,12.30
2019-03-18T15:57:42.145Z,12.23
2019-03-18T16:00:31.195Z,12.07
2019-03-18T16:03:18.950Z,12.13
2019-03-18T16:06:06.668Z,12.08
2019-03-18T16:08:54.096Z,12.24
2019-03-18T16:11:41.723Z,12.24
2019-03-18T16:14:28.945Z,12.26
2019-03-18T16:17:16.364Z,12.18
2019-03-18T16:20:03.781Z,12.31
2019-03-18T16:22:51.212Z,12.24
2019-03-18T16:25:39.355Z,12.14
2019-03-18T16:28:26.630Z,12.13
2019-03-18T16:31:14.407Z,12.05
2019-03-18T16:34:01.836Z,11.88
2019-03-18T16:36:49.360Z,11.82
2019-03-18T16:39:36.784Z,11.61
2019-03-18T16:42:24.206Z,11.53
2019-03-18T16:45:13.550Z,11.40
2019-03-18T16:48:00.698Z,11.51
2019-03-18T16:50:48.427Z,11.44
2019-03-18T16:53:36.167Z,11.22
2019-03-18T16:56:23.816Z,11.41
2019-03-18T16:59:12.237Z,11.18
2019-03-18T17:01:59.558Z,11.33
2019-03-18T17:04:47.096Z,11.13
2019-03-18T17:07:35.140Z,10.89
2019-03-18T17:10:22.960Z,10.42
2019-03-18T17:13:10.796Z,10.31
2019-03-18T17:15:58.527Z,10.13
2019-03-18T17:18:46.293Z,10.37
2019-03-18T17:21:33.686Z,10.55
2019-03-18T17:24:21.727Z,10.68
2019-03-18T17:27:09.658Z,10.54
2019-03-18T17:29:57.396Z,10.58
2019-03-18T17:32:45.127Z,10.67
2019-03-18T17:35:32.958Z,10.65
2019-03-18T17:38:20.890Z,10.59
2019-03-18T17:41:09.593Z,10.55
2019-03-18T17:43:57.398Z,10.49
2019-03-18T17:46:44.945Z,10.48
2019-03-18T17:49:32.550Z,10.41
2019-03-18T17:52:20.183Z,10.39
2019-03-18T17:55:09.024Z,10.34
2019-03-18T17:57:56.758Z,10.30
2019-03-18T18:00:52.375Z,10.25
2019-03-18T18:03:39.990Z,10.20
2019-03-18T18:06:29.679Z,10.11
2019-03-18T18:09:17.609Z,10.01
2019-03-18T18:12:07.359Z,9.98
2019-03-18T18:14:54.598Z,9.89
2019-03-18T18:17:42.434Z,9.81
2019-03-18T18:20:31.914Z,9.68
2019-03-18T18:23:19.129Z,9.61
2019-03-18T18:26:06.654Z,9.52
2019-03-18T18:28:54.500Z,9.47
2019-03-18T18:31:41.823Z,9.46
2019-03-18T18:34:29.439Z,9.46
2019-03-18T18:37:16.553Z,9.30
2019-03-18T18:40:07.338Z,9.29
2019-03-18T18:42:54.891Z,9.24
2019-03-18T18:45:42.719Z,9.18
2019-03-18T18:48:30.453Z,9.05
2019-03-18T18:51:17.984Z,8.98
2019-03-18T18:54:05.911Z,8.94
2019-03-18T18:56:53.708Z,8.95
2019-03-18T18:59:41.479Z,8.86
2019-03-18T19:02:29.210Z,8.86
2019-03-18T19:05:17.610Z,8.90
2019-03-18T19:08:05.813Z,8.84
2019-03-18T19:10:53.321Z,8.80
2019-03-18T19:13:40.441Z,8.79
2019-03-18T19:16:28.581Z,8.65
2019-03-18T19:19:16.417Z,8.49
2019-03-18T19:22:04.148Z,8.11
2019-03-18T19:24:51.776Z,8.28
2019-03-18T19:27:39.508Z,8.32
2019-03-18T19:30:27.241Z,8.45
2019-03-18T19:33:14.969Z,8.47
2019-03-18T19:36:02.515Z,8.50
2019-03-18T19:38:49.714Z,8.51
2019-03-18T19:41:37.138Z,8.57
2019-03-18T19:44:24.870Z,8.64
2019-03-18T19:47:12.399Z,8.56
2019-03-18T19:50:00.026Z,8.60
2019-03-18T19:52:47.961Z,8.59
2019-03-18T19:55:35.693Z,8.63
2019-03-18T19:58:23.538Z,8.66
2019-03-18T20:01:11.264Z,8.70
2019-03-18T20:03:59.816Z,8.71
2019-03-18T20:06:47.136Z,8.72
2019-03-18T20:09:34.556Z,8.68
2019-03-18T20:12:21.672Z,8.66
2019-03-18T20:15:11.761Z,8.68
2019-03-18T20:17:59.083Z,8.70
2019-03-18T20:20:46.708Z,8.64
2019-03-18T20:23:34.439Z,8.62
2019-03-18T20:26:21.761Z,8.61
2019-03-18T20:29:09.191Z,8.59
2019-03-18T20:31:56.610Z,8.59
2019-03-18T20:34:43.625Z,8.13
2019-03-18T20:37:31.460Z,8.50
2019-03-18T20:40:19.296Z,8.47
2019-03-18T20:43:06.613Z,8.31
2019-03-18T20:45:54.451Z,8.22
2019-03-18T20:48:41.973Z,8.25
2019-03-18T20:51:29.503Z,8.28
2019-03-18T20:54:16.621Z,8.19
2019-03-18T20:57:04.661Z,8.16
2019-03-18T20:59:52.432Z,8.12
2019-03-18T21:02:39.916Z,8.05
2019-03-18T21:05:27.650Z,8.03
2019-03-18T21:08:15.069Z,8.02
2019-03-18T21:11:03.005Z,8.00
2019-03-18T21:13:57.121Z,8.00
2019-03-18T21:16:39.800Z,7.96
2019-03-18T21:19:27.429Z,7.99
2019-03-18T21:22:15.160Z,7.98
2019-03-18T21:25:02.795Z,7.96
2019-03-18T21:27:51.648Z,7.94
2019-03-18T21:30:39.693Z,7.88
2019-03-18T21:33:27.423Z,7.86
2019-03-18T21:36:28.258Z,7.80
2019-03-18T21:39:07.486Z,7.79
2019-03-18T21:41:55.116Z,7.75
2019-03-18T21:44:42.541Z,7.72
2019-03-18T21:47:30.479Z,7.74
2019-03-18T21:50:18.006Z,7.66
2019-03-18T21:53:05.577Z,7.60
2019-03-18T21:55:53.880Z,7.57
2019-03-18T21:58:41.298Z,7.55
2019-03-18T22:01:28.724Z,7.50
2019-03-18T22:04:15.947Z,7.34
2019-03-18T22:07:04.802Z,7.36
2019-03-18T22:09:52.648Z,7.34
2019-03-18T22:12:39.853Z,7.38
2019-03-18T22:15:27.689Z,7.41
2019-03-18T22:18:15.315Z,7.38
2019-03-18T22:21:02.573Z,7.28
2019-03-18T22:23:50.269Z,7.24
2019-03-18T22:26:37.282Z,7.27
2019-03-18T22:29:24.939Z,7.22
2019-03-18T22:32:12.375Z,7.22
2019-03-18T22:35:00.326Z,7.21
2019-03-18T22:37:47.900Z,7.16
2019-03-18T22:40:36.059Z,7.12
2019-03-18T22:43:23.983Z,7.05
2019-03-18T22:46:11.399Z,7.06
2019-03-18T22:48:59.240Z,7.09
2019-03-18T22:51:46.964Z,7.05
2019-03-18T22:54:34.800Z,7.04
2019-03-18T22:57:22.530Z,7.00
2019-03-18T23:00:18.000Z,6.93
2019-03-18T23:03:05.798Z,6.92
2019-03-18T23:05:53.571Z,6.88
2019-03-18T23:08:41.011Z,6.85
2019-03-18T23:11:28.361Z,6.74
2019-03-18T23:14:15.846Z,6.74
2019-03-18T23:17:03.516Z,6.69
2019-03-18T23:19:51.043Z,6.62
2019-03-18T23:22:38.471Z,6.51
2019-03-18T23:25:25.786Z,6.42
2019-03-18T23:28:13.310Z,6.33
2019-03-18T23:31:01.147Z,6.31
2019-03-18T23:33:48.877Z,6.22
2019-03-18T23:36:36.301Z,6.20
2019-03-18T23:39:23.633Z,6.12
2019-03-18T23:42:10.723Z,6.07
2019-03-18T23:44:58.264Z,6.07
2019-03-18T23:47:45.791Z,6.13
2019-03-18T23:50:32.702Z,6.09
2019-03-18T23:53:19.720Z,6.10
2019-03-18T23:56:07.244Z,6.09
2019-03-18T23:58:54.672Z,6.10
